Time;durP1;ratioP1;P1;durP2;ratioP2;P2;SDS_P1;SDS_P2;PMS_P1;PMS_P2;Temp;Humidity;BMP_temperature;BMP_pressure;BME280_temperature;BME280_humidity;BME280_pressure;Samples;Min_cycle;Max_cycle;Signal;HPM_P1;HPM_P2
2021/06/12 00:08:47;;;;;;;8.35;7.00;;;;;;;14.65;62.12;99396.83;531068;1089;116310;-59
2021/06/12 00:18:53;;;;;;;11.00;7.80;;;;;;;14.67;62.18;99395.73;522871;1089;116248;-59
2021/06/12 00:28:59;;;;;;;9.47;7.83;;;;;;;14.65;62.25;99387.08;527949;1089;116496;-59
2021/06/12 00:39:06;;;;;;;12.57;9.53;;;;;;;14.60;62.69;99384.00;518191;1089;117741;-59
2021/06/12 00:49:12;;;;;;;13.93;9.37;;;;;;;14.35;62.55;99386.06;516174;1089;115900;-58
2021/06/12 00:59:18;;;;;;;11.00;7.45;;;;;;;14.15;63.63;99377.16;518911;1090;116435;-58
2021/06/12 01:09:27;;;;;;;13.23;8.80;;;;;;;13.96;64.26;99368.11;520730;1090;116321;-58
2021/06/12 01:20:03;;;;;;;9.20;8.30;;;;;;;13.94;64.33;99367.40;522946;1090;116762;-60
2021/06/12 01:30:20;;;;;;;9.53;8.23;;;;;;;14.06;64.43;99357.62;522580;1089;116852;-59
2021/06/12 01:40:30;;;;;;;13.17;8.90;;;;;;;14.16;64.70;99365.63;520067;1090;116130;-58
2021/06/12 01:50:37;;;;;;;8.23;7.37;;;;;;;14.21;64.43;99350.23;515987;1089;116795;-58
2021/06/12 02:00:43;;;;;;;13.07;9.27;;;;;;;14.29;64.80;99352.23;529279;1089;116656;-58
2021/06/12 02:10:50;;;;;;;15.87;7.80;;;;;;;14.16;65.02;99357.72;526790;1089;116644;-59
2021/06/12 02:20:57;;;;;;;10.43;8.23;;;;;;;13.91;65.51;99351.83;529863;1089;116792;-59
2021/06/12 02:31:08;;;;;;;12.10;8.63;;;;;;;13.85;65.79;99352.31;532429;1089;117287;-59
2021/06/12 02:41:17;;;;;;;12.03;8.70;;;;;;;14.01;65.95;99359.81;523266;1090;117534;-59
2021/06/12 02:51:23;;;;;;;12.73;8.37;;;;;;;14.19;66.01;99367.16;529181;1089;117044;-59
2021/06/12 03:01:30;;;;;;;17.90;9.47;;;;;;;14.38;65.97;99364.67;520860;1088;117192;-59
2021/06/12 03:11:37;;;;;;;8.13;7.30;;;;;;;14.95;65.54;99358.22;531399;1089;117948;-58
2021/06/12 03:21:44;;;;;;;10.43;9.33;;;;;;;15.13;65.41;99361.08;532100;1088;116488;-60
2021/06/12 03:31:50;;;;;;;13.93;8.67;;;;;;;15.62;65.15;99355.06;531905;1089;117369;-59
2021/06/12 03:41:58;;;;;;;13.17;9.90;;;;;;;16.28;64.40;99358.89;530385;1088;118240;-59
2021/06/12 03:52:05;;;;;;;14.80;10.70;;;;;;;16.56;63.13;99372.22;520831;1088;116645;-59
2021/06/12 04:02:13;;;;;;;29.17;12.23;;;;;;;16.22;63.28;99354.98;518762;1090;115922;-58
2021/06/12 04:12:19;;;;;;;15.27;10.93;;;;;;;18.03;65.00;99346.81;527860;1089;117085;-59
2021/06/12 04:22:27;;;;;;;12.07;9.50;;;;;;;27.57;52.13;99334.97;528766;1089;116415;-59
2021/06/12 04:32:33;;;;;;;14.13;9.00;;;;;;;33.69;42.05;99343.94;525266;1089;116490;-60
2021/06/12 04:42:39;;;;;;;12.70;8.95;;;;;;;38.36;34.57;99325.52;531075;1090;117550;-60
2021/06/12 04:52:46;;;;;;;12.15;9.23;;;;;;;42.43;28.54;99322.03;526118;1089;117391;-64
2021/06/12 05:02:52;;;;;;;7.88;7.18;;;;;;;38.25;26.18;99324.00;531592;1088;117332;-59
2021/06/12 05:12:58;;;;;;;13.35;8.50;;;;;;;38.49;27.41;99314.99;531156;1090;116598;-60
2021/06/12 05:23:05;;;;;;;7.98;7.13;;;;;;;44.84;22.34;99303.66;532450;1089;117015;-61
2021/06/12 05:33:11;;;;;;;9.85;6.50;;;;;;;48.48;19.26;99287.84;531343;1089;117311;-60
2021/06/12 05:43:17;;;;;;;6.13;5.55;;;;;;;47.02;17.09;99283.27;531057;1090;115687;-60
2021/06/12 05:53:25;;;;;;;5.35;4.95;;;;;;;49.76;16.27;99278.08;531125;1089;116338;-60
2021/06/12 06:03:32;;;;;;;8.20;3.83;;;;;;;51.53;14.59;99268.50;514245;1089;10001399;-60
2021/06/12 06:13:42;;;;;;;4.43;4.00;;;;;;;52.50;13.86;99273.25;531985;1089;116835;-60
2021/06/12 06:23:49;;;;;;;3.63;3.00;;;;;;;47.59;13.45;99260.22;531067;1090;117244;-61
2021/06/12 06:33:54;;;;;;;7.00;3.47;;;;;;;39.45;17.79;99260.22;532046;1089;116348;-61
2021/06/12 06:44:01;;;;;;;3.58;3.28;;;;;;;35.66;21.37;99263.13;532115;1090;116375;-62
2021/06/12 06:54:07;;;;;;;5.00;2.80;;;;;;;36.68;23.01;99259.66;522443;1089;117164;-61
2021/06/12 07:04:13;;;;;;;3.50;3.20;;;;;;;36.59;22.56;99256.67;532011;1090;151169;-59
2021/06/12 07:14:19;;;;;;;3.25;2.30;;;;;;;46.42;17.23;99247.75;527465;1089;117134;-62
2021/06/12 07:24:26;;;;;;;4.78;2.93;;;;;;;50.76;13.92;99226.14;513879;1089;116306;-60
2021/06/12 07:34:32;;;;;;;2.83;2.63;;;;;;;53.61;11.91;99223.52;521926;1089;116471;-60
2021/06/12 07:44:38;;;;;;;3.95;2.40;;;;;;;51.60;11.88;99197.04;526662;1088;116786;-59
2021/06/12 07:54:44;;;;;;;2.40;2.20;;;;;;;44.28;14.14;99182.92;514855;1089;116791;-59
2021/06/12 08:04:50;;;;;;;6.73;2.60;;;;;;;39.42;16.92;99172.92;523525;1090;116611;-62
2021/06/12 08:14:56;;;;;;;8.20;2.90;;;;;;;35.67;20.39;99176.56;513363;1089;117727;-59
2021/06/12 08:25:02;;;;;;;2.53;2.33;;;;;;;33.87;22.35;99173.92;527234;1089;116637;-59
2021/06/12 08:35:09;;;;;;;2.98;2.43;;;;;;;33.64;23.14;99172.41;531422;1089;115872;-59
2021/06/12 08:45:17;;;;;;;7.20;3.05;;;;;;;33.33;23.97;99164.01;529136;1089;117313;-58
2021/06/12 08:55:24;;;;;;;2.45;2.15;;;;;;;33.43;23.79;99155.93;524872;1089;117135;-58
2021/06/12 09:05:40;;;;;;;4.40;2.47;;;;;;;32.66;25.08;99154.13;516711;1089;116579;-58
2021/06/12 09:15:50;;;;;;;;;;;;;;;32.89;25.13;99145.91;527892;1090;116659;-58
2021/06/12 09:25:56;;;;;;;5.43;2.93;;;;;;;32.77;25.45;99130.58;522029;1089;102621;-58
2021/06/12 09:36:07;;;;;;;5.83;2.15;;;;;;;31.64;25.93;99128.11;524647;1088;116132;-59
2021/06/12 09:46:46;;;;;;;6.13;2.97;;;;;;;29.34;28.22;99120.39;522337;1089;116979;-59
2021/06/12 09:57:00;;;;;;;6.33;3.10;;;;;;;27.82;30.17;99120.08;530404;1090;116979;-59
2021/06/12 10:07:09;;;;;;;6.13;3.88;;;;;;;28.81;30.70;99093.11;531169;1088;116387;-59
2021/06/12 10:17:16;;;;;;;5.43;3.23;;;;;;;29.84;30.02;99099.34;531197;1089;116728;-59
2021/06/12 10:27:24;;;;;;;3.50;3.20;;;;;;;30.72;28.84;99091.09;530420;1089;116222;-58
2021/06/12 10:37:30;;;;;;;6.40;2.97;;;;;;;29.72;28.99;99067.72;530249;1089;117264;-59
2021/06/12 10:47:46;;;;;;;5.77;3.20;;;;;;;29.47;29.37;99055.28;521413;1089;10001717;-58
2021/06/12 10:57:52;;;;;;;6.38;3.05;;;;;;;29.58;29.44;99028.47;526505;1090;117062;-59
2021/06/12 11:08:16;;;;;;;4.63;3.65;;;;;;;30.29;30.24;99003.08;522567;1089;116084;-58
2021/06/12 11:18:24;;;;;;;9.73;5.10;;;;;;;30.76;29.70;98985.77;531560;1088;117276;-57
2021/06/12 11:28:38;;;;;;;5.50;3.43;;;;;;;30.46;28.78;98971.44;527769;1090;116464;-59
2021/06/12 11:38:44;;;;;;;5.00;3.27;;;;;;;28.89;29.74;98973.95;531495;1089;117754;-58
2021/06/12 11:48:52;;;;;;;7.40;2.97;;;;;;;27.29;31.35;98962.34;532024;1089;116118;-58
2021/06/12 11:58:59;;;;;;;5.47;3.37;;;;;;;26.48;33.16;98959.53;532174;1089;117742;-59
2021/06/12 12:09:05;;;;;;;;;;;;;;;26.33;34.05;98951.76;525449;1089;116520;-58
2021/06/12 12:19:12;;;;;;;5.53;3.67;;;;;;;26.19;34.68;98941.09;531534;1088;103244;-58
2021/06/12 12:29:31;;;;;;;8.93;3.45;;;;;;;25.95;35.60;98950.70;520619;1089;116745;-58
2021/06/12 12:39:42;;;;;;;5.60;4.30;;;;;;;25.25;37.99;98969.12;514375;1089;116584;-56
2021/06/12 12:49:49;;;;;;;7.10;4.87;;;;;;;24.02;42.86;98966.53;532044;1089;117550;-57
2021/06/12 12:59:54;;;;;;;7.90;5.20;;;;;;;23.34;43.99;98956.55;525662;1088;116753;-57
2021/06/12 13:10:12;;;;;;;8.13;5.63;;;;;;;22.62;46.89;98988.72;532186;1089;116257;-57
2021/06/12 13:20:21;;;;;;;;;;;;;;;21.83;51.17;99001.86;520321;1088;116828;-59
2021/06/12 13:30:50;;;;;;;11.30;7.80;;;;;;;21.75;52.39;98967.22;531783;1089;102565;-59
2021/06/12 13:40:58;;;;;;;8.30;7.20;;;;;;;22.05;52.47;98945.79;524325;1089;118643;-59
2021/06/12 13:51:05;;;;;;;7.37;6.00;;;;;;;22.22;52.25;98923.13;531494;1089;117225;-59
2021/06/12 14:01:13;;;;;;;8.40;7.60;;;;;;;22.28;52.71;98921.53;531903;1089;116507;-59
2021/06/12 14:11:19;;;;;;;7.38;6.73;;;;;;;22.39;53.18;98899.63;532041;1089;117831;-59
2021/06/12 14:21:25;;;;;;;8.50;6.87;;;;;;;22.89;52.96;98900.65;529384;1089;116499;-59
2021/06/12 14:31:31;;;;;;;8.23;7.40;;;;;;;22.87;52.65;98898.16;531029;1089;116491;-58
2021/06/12 14:41:43;;;;;;;10.43;9.33;;;;;;;22.63;53.99;98876.18;521194;1090;117947;-62
2021/06/12 14:51:49;;;;;;;7.07;6.37;;;;;;;22.43;54.29;98851.09;514614;1088;116292;-58
2021/06/12 15:01:54;;;;;;;12.17;7.90;;;;;;;22.22;55.60;98845.59;526694;1089;116717;-58
2021/06/12 15:12:00;;;;;;;14.40;11.20;;;;;;;21.71;57.44;98859.09;519661;1089;116633;-59
2021/06/12 15:22:06;;;;;;;13.88;10.35;;;;;;;21.12;60.05;98869.64;526426;1089;117511;-59
2021/06/12 15:32:12;;;;;;;15.03;13.10;;;;;;;20.56;60.93;98854.85;531155;1089;116753;-59
2021/06/12 15:42:18;;;;;;;14.67;13.33;;;;;;;20.04;62.27;98845.80;525808;1089;117740;-57
2021/06/12 15:52:24;;;;;;;14.03;12.93;;;;;;;20.03;62.86;98829.00;521918;1090;116442;-58
2021/06/12 16:02:30;;;;;;;15.57;13.77;;;;;;;19.90;63.59;98821.56;516943;1090;116162;-58
2021/06/12 16:12:39;;;;;;;34.50;31.20;;;;;;;19.68;64.76;98833.84;531479;1088;118005;-59
2021/06/12 16:22:45;;;;;;;17.17;15.67;;;;;;;19.50;65.33;98839.45;531186;1089;116707;-59
2021/06/12 16:32:51;;;;;;;16.47;14.90;;;;;;;19.12;66.58;98838.30;521784;1089;116528;-58
2021/06/12 16:42:59;;;;;;;3.67;1.80;;;;;;;17.85;67.31;98866.13;530296;1089;116909;-58
2021/06/12 16:53:06;;;;;;;2.55;1.45;;;;;;;16.79;68.25;98849.61;529484;1090;116102;-58
2021/06/12 17:03:12;;;;;;;3.20;1.63;;;;;;;16.60;68.77;98816.20;530790;1088;116762;-58
2021/06/12 17:13:18;;;;;;;2.77;1.83;;;;;;;16.61;69.96;98857.63;522592;1089;115956;-58
2021/06/12 17:23:24;;;;;;;3.37;2.67;;;;;;;16.73;70.50;98866.97;515058;1090;116855;-58
2021/06/12 17:33:31;;;;;;;7.87;7.10;;;;;;;16.86;71.08;98871.02;515012;1089;116478;-57
2021/06/12 17:43:37;;;;;;;5.60;5.10;;;;;;;16.73;71.74;98901.44;527742;1089;116522;-59
2021/06/12 17:53:43;;;;;;;5.10;2.53;;;;;;;16.05;71.35;98931.98;518421;1090;116200;-58
2021/06/12 18:03:50;;;;;;;1.93;1.80;;;;;;;15.50;70.65;98920.42;530987;1089;116732;-57
2021/06/12 18:13:57;;;;;;;1.77;1.67;;;;;;;15.20;71.04;98947.00;530050;1088;116053;-59
2021/06/12 18:24:03;;;;;;;1.70;1.60;;;;;;;14.93;72.14;98953.89;524959;1089;116248;-59
2021/06/12 18:34:10;;;;;;;2.40;2.20;;;;;;;14.82;72.96;98973.37;530906;1089;116792;-59
2021/06/12 18:44:16;;;;;;;4.27;3.33;;;;;;;14.75;73.49;98966.16;531094;1090;117654;-59
2021/06/12 18:54:22;;;;;;;4.33;3.43;;;;;;;14.78;73.86;98971.17;524698;1089;117089;-60
2021/06/12 19:04:27;;;;;;;3.97;3.57;;;;;;;14.70;74.49;98982.39;515929;1089;116738;-59
2021/06/12 19:14:34;;;;;;;4.37;3.97;;;;;;;14.70;74.94;98995.60;516794;1088;116688;-59
2021/06/12 19:24:41;;;;;;;4.03;3.63;;;;;;;14.58;75.18;99010.78;517980;1089;116570;-58
2021/06/12 19:34:50;;;;;;;6.17;5.57;;;;;;;14.56;75.61;99015.37;523533;1089;116084;-60
2021/06/12 19:44:57;;;;;;;6.97;6.47;;;;;;;14.53;75.70;99019.11;528860;1089;115889;-60
2021/06/12 19:55:04;;;;;;;6.85;6.25;;;;;;;14.43;75.79;99032.32;526444;1088;116761;-60
2021/06/12 20:05:13;;;;;;;5.87;4.53;;;;;;;13.92;75.16;99043.85;518528;1089;116347;-59
2021/06/12 20:15:19;;;;;;;4.95;4.40;;;;;;;13.46;75.90;99046.84;523439;1090;117066;-59
2021/06/12 20:25:25;;;;;;;6.40;5.80;;;;;;;13.24;76.58;99071.53;523214;1089;116821;-59
2021/06/12 20:35:31;;;;;;;6.37;5.77;;;;;;;13.12;77.33;99074.22;514760;1090;117332;-56
2021/06/12 20:45:38;;;;;;;6.03;5.43;;;;;;;12.85;78.26;99091.33;526867;1089;178837;-59
2021/06/12 20:55:44;;;;;;;6.17;5.57;;;;;;;12.69;78.22;99101.45;532545;1088;116494;-60
2021/06/12 21:05:49;;;;;;;6.07;4.63;;;;;;;12.51;78.52;99109.86;529604;1087;116423;-58
2021/06/12 21:15:56;;;;;;;5.53;4.90;;;;;;;12.33;78.37;99109.53;514578;1087;116087;-59
2021/06/12 21:26:02;;;;;;;5.47;4.97;;;;;;;12.17;78.61;99123.06;532330;1087;116327;-59
2021/06/12 21:36:09;;;;;;;5.33;4.83;;;;;;;12.02;79.27;99125.94;513868;1087;116643;-59
2021/06/12 21:46:15;;;;;;;6.00;5.50;;;;;;;12.09;79.53;99128.11;532515;1087;116404;-59
2021/06/12 21:56:21;;;;;;;5.47;4.73;;;;;;;12.28;78.95;99149.38;516676;1087;115862;-57
2021/06/12 22:06:27;;;;;;;6.20;4.10;;;;;;;12.16;79.15;99156.45;519526;1087;116661;-59
2021/06/12 22:16:34;;;;;;;6.37;4.00;;;;;;;12.16;79.21;99131.91;517635;1087;117381;-59
2021/06/12 22:26:40;;;;;;;4.80;4.40;;;;;;;12.28;79.39;99159.91;518246;1087;116005;-62
2021/06/12 22:36:46;;;;;;;10.03;5.40;;;;;;;12.45;79.13;99171.75;521216;1087;116210;-58
2021/06/12 22:46:52;;;;;;;6.07;3.77;;;;;;;12.53;79.00;99176.43;515622;1087;116660;-58
2021/06/12 22:56:58;;;;;;;4.60;4.10;;;;;;;12.60;78.59;99195.22;513848;1088;116009;-60
2021/06/12 23:07:06;;;;;;;4.30;3.90;;;;;;;12.63;78.36;99204.66;515222;1088;115959;-60
2021/06/12 23:17:15;;;;;;;4.13;3.70;;;;;;;12.53;78.12;99212.45;515794;1088;116795;-59
2021/06/12 23:27:22;;;;;;;8.03;3.53;;;;;;;12.44;78.01;99204.30;515128;1088;116260;-60
2021/06/12 23:37:28;;;;;;;5.03;3.57;;;;;;;12.11;77.69;99223.55;514952;1089;115446;-60
2021/06/12 23:47:33;;;;;;;3.77;3.03;;;;;;;11.83;78.17;99217.71;514706;1085;116080;-60
2021/06/12 23:57:40;;;;;;;9.57;4.03;;;;;;;11.59;78.64;99229.97;515650;1088;116424;-60
